Time,TemperatureF,DewpointF,PressureIn,WindDirection,WindDirectionDegrees,WindSpeedMPH,WindSpeedGustMPH,Humidity,HourlyPrecipIn,Conditions,Clouds,dailyrainin,SoftwareType,DateUTC
2013-08-30 00:00:00,75.3,70.8,29.98,East,88,0.0,1.3,86,0.00,,-RA,0.00,VWS V14.01,2013-08-30 04:00:00,
2013-08-30 00:13:00,75.2,71.1,29.99,East,88,0.0,0.0,87,0.00,,-RA,0.00,VWS V14.01,2013-08-30 04:13:00,
2013-08-30 00:28:00,75.3,71.2,29.99,East,88,0.0,0.0,87,0.00,,OVC070,0.00,VWS V14.01,2013-08-30 04:28:00,
2013-08-30 00:43:00,75.5,71.4,29.99,East,88,0.0,1.3,87,0.00,,OVC070,0.00,VWS V14.01,2013-08-30 04:43:00,
2013-08-30 00:58:00,76.2,71.0,30.00,NNE,28,0.0,2.6,84,0.00,,OVC034,0.00,VWS V14.01,2013-08-30 04:58:00,
2013-08-30 01:13:00,76.5,71.0,30.01,NNE,28,0.0,0.0,83,0.00,,OVC032,0.00,VWS V14.01,2013-08-30 05:13:00,
2013-08-30 01:28:00,76.6,71.4,30.00,NNE,28,0.0,2.6,84,0.00,,OVC032,0.00,VWS V14.01,2013-08-30 05:28:00,
2013-08-30 01:43:00,76.0,71.2,30.00,NNE,28,2.6,3.9,85,0.00,,BKN032,0.00,VWS V14.01,2013-08-30 05:43:00,
2013-08-30 01:58:00,76.0,71.2,30.00,NE,47,0.0,2.6,85,0.00,,BKN030,0.00,VWS V14.01,2013-08-30 05:58:00,
2013-08-30 02:13:00,76.1,71.6,30.00,NE,47,0.0,0.0,86,0.00,,OVC033,0.00,VWS V14.01,2013-08-30 06:13:00,
2013-08-30 02:28:00,76.1,71.6,30.00,NE,47,1.3,2.6,86,0.00,,OVC044,0.00,VWS V14.01,2013-08-30 06:28:00,
2013-08-30 02:43:00,76.4,72.2,30.00,ENE,67,2.6,3.9,87,0.00,,OVC044,0.00,VWS V14.01,2013-08-30 06:43:00,
2013-08-30 02:58:00,76.0,71.9,30.00,NE,55,0.0,2.6,87,0.00,,OVC044,0.00,VWS V14.01,2013-08-30 06:58:00,
2013-08-30 03:13:00,75.9,71.8,30.00,NE,36,1.3,3.9,87,0.00,,OVC080,0.00,VWS V14.01,2013-08-30 07:13:00,
2013-08-30 03:28:00,75.3,71.2,30.00,ENE,64,1.3,3.9,87,0.00,,OVC080,0.00,VWS V14.01,2013-08-30 07:28:00,
2013-08-30 03:43:00,75.3,70.8,30.00,ENE,73,1.3,5.2,86,0.00,,OVC080,0.00,VWS V14.01,2013-08-30 07:43:00,
2013-08-30 03:58:00,75.0,70.5,30.00,East,96,1.3,5.2,86,0.00,,OVC080,0.00,VWS V14.01,2013-08-30 07:58:00,
2013-08-30 04:13:00,74.6,70.1,30.00,North,355,2.6,3.9,86,0.00,,,0.00,VWS V14.01,2013-08-30 08:13:00,
2013-08-30 04:28:00,74.3,69.8,30.00,ENE,64,2.6,5.2,86,0.00,,,0.00,VWS V14.01,2013-08-30 08:28:00,
2013-08-30 04:43:00,74.1,69.7,30.00,ENE,60,3.9,3.9,86,0.00,,,0.00,VWS V14.01,2013-08-30 08:43:00,
2013-08-30 04:58:00,74.1,69.7,30.00,ENE,66,2.6,5.2,86,0.00,,,0.00,VWS V14.01,2013-08-30 08:58:00,
2013-08-30 05:13:00,74.0,69.6,30.00,East,79,0.0,5.2,86,0.00,,BKN028,0.00,VWS V14.01,2013-08-30 09:13:00,
2013-08-30 05:28:00,73.9,69.4,30.01,East,82,1.3,1.3,86,0.00,,BKN028,0.00,VWS V14.01,2013-08-30 09:28:00,
2013-08-30 05:43:00,73.8,69.3,30.01,ENE,61,0.0,1.3,86,0.00,,BKN028,0.00,VWS V14.01,2013-08-30 09:43:00,
2013-08-30 05:58:00,73.7,69.6,30.01,East,92,3.9,7.8,87,0.00,,BKN028,0.00,VWS V14.01,2013-08-30 09:58:00,
2013-08-30 06:13:00,73.6,69.5,30.01,NE,55,2.6,5.2,87,0.00,,OVC075,0.00,VWS V14.01,2013-08-30 10:13:00,
2013-08-30 06:28:00,73.5,69.4,30.02,NE,55,2.6,3.9,87,0.00,,OVC075,0.00,VWS V14.01,2013-08-30 10:28:00,
2013-08-30 06:43:00,73.5,69.4,30.03,NE,55,2.6,2.6,87,0.00,,OVC075,0.00,VWS V14.01,2013-08-30 10:43:00,
2013-08-30 06:58:00,73.4,69.6,30.03,NE,55,0.0,1.3,88,0.00,,,0.00,VWS V14.01,2013-08-30 10:58:00,
2013-08-30 07:13:00,73.3,69.5,30.04,ENE,72,3.9,7.8,88,0.00,,,0.00,VWS V14.01,2013-08-30 11:13:00,
2013-08-30 07:28:00,73.6,69.8,30.04,ENE,74,0.0,1.3,88,0.00,,,0.00,VWS V14.01,2013-08-30 11:28:00,
2013-08-30 07:43:00,73.5,69.7,30.05,ENE,73,2.6,3.9,88,0.00,,,0.00,VWS V14.01,2013-08-30 11:43:00,
2013-08-30 07:58:00,73.5,69.4,30.05,ENE,69,1.3,2.6,87,0.00,,,0.00,VWS V14.01,2013-08-30 11:58:00,
2013-08-30 08:13:00,73.5,69.4,30.05,East,94,0.0,3.9,87,0.00,,,0.00,VWS V14.01,2013-08-30 12:13:00,
2013-08-30 08:28:00,73.6,69.2,30.05,ENE,65,2.6,3.9,86,0.00,,,0.00,VWS V14.01,2013-08-30 12:28:00,
2013-08-30 08:43:00,73.8,68.7,30.06,NE,35,1.3,6.5,84,0.00,,OVC031,0.00,VWS V14.01,2013-08-30 12:43:00,
2013-08-30 08:58:00,74.4,68.9,30.05,East,80,3.9,7.8,83,0.00,,OVC031,0.00,VWS V14.01,2013-08-30 12:58:00,
2013-08-30 09:13:00,74.4,68.2,30.06,SE,133,3.9,3.9,81,0.00,,OVC080,0.00,VWS V14.01,2013-08-30 13:13:00,
2013-08-30 09:28:00,74.4,68.2,30.06,East,84,2.6,7.8,81,0.00,,OVC080,0.00,VWS V14.01,2013-08-30 13:28:00,
2013-08-30 09:43:00,75.5,68.9,30.06,NE,44,2.6,6.5,80,0.00,,OVC080,0.00,VWS V14.01,2013-08-30 13:43:00,
2013-08-30 09:58:00,76.3,69.7,30.06,NE,39,2.6,3.9,80,0.00,,OVC080,0.00,VWS V14.01,2013-08-30 13:58:00,
2013-08-30 10:13:00,77.4,70.4,30.06,ENE,59,1.3,5.2,79,0.00,,OVC085,0.00,VWS V14.01,2013-08-30 14:13:00,
2013-08-30 10:28:00,78.5,70.3,30.07,NE,55,3.9,14.3,76,0.00,,OVC085,0.00,VWS V14.01,2013-08-30 14:28:00,
2013-08-30 10:43:00,79.5,71.3,30.07,East,83,1.3,3.9,76,0.00,,OVC085,0.00,VWS V14.01,2013-08-30 14:43:00,
2013-08-30 10:58:00,78.8,71.0,30.07,ENE,69,0.0,2.6,77,0.00,,BKN080,0.00,VWS V14.01,2013-08-30 14:58:00,
2013-08-30 11:13:00,78.2,70.8,30.07,East,87,3.9,5.2,78,0.00,,OVC080,0.00,VWS V14.01,2013-08-30 15:13:00,
2013-08-30 11:28:00,78.9,71.5,30.07,East,79,1.3,2.6,78,0.00,,OVC080,0.00,VWS V14.01,2013-08-30 15:28:00,
2013-08-30 11:43:00,78.6,71.2,30.07,East,93,0.0,3.9,78,0.00,,OVC080,0.00,VWS V14.01,2013-08-30 15:43:00,
2013-08-30 11:58:00,78.7,71.3,30.07,ENE,57,0.0,2.6,78,0.00,,OVC080,0.00,VWS V14.01,2013-08-30 15:58:00,
2013-08-30 12:13:00,79.4,71.6,30.07,NNE,17,1.3,3.9,77,0.00,,OVC060,0.00,VWS V14.01,2013-08-30 16:13:00,
2013-08-30 12:28:00,80.1,71.9,30.06,East,100,0.0,2.6,76,0.00,,OVC060,0.00,VWS V14.01,2013-08-30 16:28:00,
2013-08-30 12:43:00,81.0,72.7,30.06,East,100,0.0,1.3,76,0.00,,OVC060,0.00,VWS V14.01,2013-08-30 16:43:00,
2013-08-30 12:58:00,80.3,71.7,30.05,East,83,1.3,3.9,75,0.00,,OVC060,0.00,VWS V14.01,2013-08-30 16:58:00,
2013-08-30 13:13:00,81.3,71.8,30.05,East,87,2.6,2.6,73,0.00,,OVC025,0.00,VWS V14.01,2013-08-30 17:13:00,
2013-08-30 13:28:00,81.7,72.6,30.05,ENE,78,1.3,2.6,74,0.00,,OVC025,0.00,VWS V14.01,2013-08-30 17:28:00,
2013-08-30 13:43:00,81.8,72.3,30.04,SSW,192,2.6,2.6,73,0.00,,OVC025,0.00,VWS V14.01,2013-08-30 17:43:00,
2013-08-30 13:58:00,83.0,72.6,30.04,SSE,164,0.0,2.6,71,0.00,,OVC025,0.00,VWS V14.01,2013-08-30 17:58:00,
2013-08-30 14:13:00,82.8,72.9,30.04,NNW,345,1.3,2.6,72,0.00,,OVC050,0.00,VWS V14.01,2013-08-30 18:13:00,
2013-08-30 14:28:00,82.9,72.9,30.03,NNE,12,1.3,2.6,72,0.00,,OVC050,0.00,VWS V14.01,2013-08-30 18:28:00,
2013-08-30 14:43:00,83.3,72.9,30.02,NNE,23,0.0,1.3,71,0.00,,OVC050,0.00,VWS V14.01,2013-08-30 18:43:00,
2013-08-30 14:58:00,82.9,72.9,30.02,NNE,24,0.0,1.3,72,0.00,,OVC050,0.00,VWS V14.01,2013-08-30 18:58:00,
2013-08-30 15:13:00,83.5,73.1,30.01,NNE,24,1.3,2.6,71,0.00,,SCT043,0.00,VWS V14.01,2013-08-30 19:13:00,
2013-08-30 15:28:00,83.5,72.7,30.01,East,97,0.0,1.3,70,0.00,,SCT043,0.00,VWS V14.01,2013-08-30 19:28:00,
2013-08-30 15:43:00,84.0,74.0,30.00,East,97,1.3,1.3,72,0.00,,BKN050,0.00,VWS V14.01,2013-08-30 19:43:00,
2013-08-30 15:58:00,84.9,74.0,29.99,SE,135,0.0,1.3,70,0.00,,BKN050,0.00,VWS V14.01,2013-08-30 19:58:00,
2013-08-30 16:13:00,85.0,73.7,29.99,WSW,239,1.3,2.6,69,0.00,,BKN041,0.00,VWS V14.01,2013-08-30 20:13:00,
2013-08-30 16:28:00,86.5,74.7,29.98,SW,223,0.0,1.3,68,0.00,,BKN041,0.00,VWS V14.01,2013-08-30 20:28:00,
2013-08-30 16:43:00,87.0,74.3,29.98,NE,35,1.3,3.9,66,0.00,,BKN041,0.00,VWS V14.01,2013-08-30 20:43:00,
2013-08-30 16:58:00,86.4,74.2,29.97,NE,55,1.3,2.6,67,0.00,,BKN041,0.00,VWS V14.01,2013-08-30 20:58:00,
2013-08-30 17:13:00,86.8,74.1,29.97,ENE,68,1.3,2.6,66,0.00,,SCT042,0.00,VWS V14.01,2013-08-30 21:13:00,
2013-08-30 17:28:00,85.7,74.4,29.97,ESE,111,0.0,2.6,69,0.00,,SCT042,0.00,VWS V14.01,2013-08-30 21:28:00,
2013-08-30 17:43:00,85.6,74.3,29.97,ESE,111,0.0,1.3,69,0.00,,SCT042,0.00,VWS V14.01,2013-08-30 21:43:00,
2013-08-30 17:58:00,84.8,73.5,29.96,SE,138,2.6,2.6,69,0.00,,SCT042,0.00,VWS V14.01,2013-08-30 21:58:00,
2013-08-30 18:13:00,84.3,73.5,29.96,SSE,154,1.3,1.3,70,0.00,,CLR,0.00,VWS V14.01,2013-08-30 22:13:00,
2013-08-30 18:28:00,84.9,74.9,29.96,SSE,154,0.0,1.3,72,0.00,,CLR,0.00,VWS V14.01,2013-08-30 22:28:00,
2013-08-30 18:43:00,84.2,73.8,29.96,SSE,155,1.3,2.6,71,0.00,,CLR,0.00,VWS V14.01,2013-08-30 22:43:00,
2013-08-30 18:58:00,83.5,73.5,29.96,WSW,248,0.0,2.6,72,0.00,,CLR,0.00,VWS V14.01,2013-08-30 22:58:00,
2013-08-30 19:13:00,82.1,73.8,29.96,WSW,248,0.0,1.3,76,0.00,,CLR,0.00,VWS V14.01,2013-08-30 23:13:00,
2013-08-30 19:28:00,79.9,72.4,29.96,WSW,248,0.0,0.0,78,0.00,,CLR,0.00,VWS V14.01,2013-08-30 23:28:00,
2013-08-30 19:43:00,78.9,72.2,29.97,WSW,248,0.0,1.3,80,0.00,,CLR,0.00,VWS V14.01,2013-08-30 23:43:00,
2013-08-30 19:58:00,78.2,72.3,29.97,WSW,248,0.0,0.0,82,0.00,,CLR,0.00,VWS V14.01,2013-08-30 23:58:00,
2013-08-30 20:13:00,77.4,71.8,29.97,WSW,248,0.0,0.0,83,0.00,,CLR,0.00,VWS V14.01,2013-08-31 00:13:00,
2013-08-30 20:28:00,77.0,71.8,29.97,WSW,248,0.0,0.0,84,0.00,,CLR,0.00,VWS V14.01,2013-08-31 00:28:00,
2013-08-30 20:43:00,76.4,71.2,29.98,WSW,248,0.0,0.0,84,0.00,,CLR,0.00,VWS V14.01,2013-08-31 00:43:00,
2013-08-30 20:58:00,76.3,71.5,29.98,WSW,248,0.0,0.0,85,0.00,,CLR,0.00,VWS V14.01,2013-08-31 00:58:00,
2013-08-30 21:13:00,75.5,71.0,29.99,WSW,248,0.0,0.0,86,0.00,,BKN035,0.00,VWS V14.01,2013-08-31 01:13:00,
2013-08-30 21:28:00,75.5,71.0,29.99,WSW,248,0.0,0.0,86,0.00,,BKN035,0.00,VWS V14.01,2013-08-31 01:28:00,
2013-08-30 21:43:00,75.2,70.7,29.99,WSW,248,0.0,0.0,86,0.00,,BKN035,0.00,VWS V14.01,2013-08-31 01:43:00,
2013-08-30 21:58:00,75.0,70.9,29.99,WSW,248,0.0,0.0,87,0.00,,BKN035,0.00,VWS V14.01,2013-08-31 01:58:00,
2013-08-30 22:13:00,75.2,70.4,29.99,WSW,248,1.3,1.3,85,0.00,,OVC035,0.00,VWS V14.01,2013-08-31 02:13:00,
2013-08-30 22:28:00,76.2,69.9,29.99,WSW,248,0.0,2.6,81,0.00,,OVC035,0.00,VWS V14.01,2013-08-31 02:28:00,
2013-08-30 22:43:00,76.5,70.2,29.99,WSW,248,0.0,1.3,81,0.00,,OVC035,0.00,VWS V14.01,2013-08-31 02:43:00,
2013-08-30 22:58:00,76.1,69.5,29.99,WSW,248,0.0,1.3,80,0.00,,OVC035,0.00,VWS V14.01,2013-08-31 02:58:00,
2013-08-30 23:13:00,76.2,69.9,29.99,WSW,248,0.0,0.0,81,0.00,,OVC039,0.00,VWS V14.01,2013-08-31 03:13:00,
2013-08-30 23:28:00,75.9,69.7,29.99,WSW,248,0.0,2.6,81,0.00,,OVC039,0.00,VWS V14.01,2013-08-31 03:28:00,
2013-08-30 23:43:00,76.6,70.0,29.99,SSW,197,0.0,2.6,80,0.00,,OVC039,0.00,VWS V14.01,2013-08-31 03:43:00,